createdAt,value
2018-06-13T00:00:54.701Z,1.70
2018-06-13T00:03:27.153Z,1.50
2018-06-13T00:05:59.813Z,1.77
2018-06-13T00:08:32.352Z,2.00
2018-06-13T00:11:05.196Z,1.30
2018-06-13T00:13:38.053Z,2.00
2018-06-13T00:16:10.359Z,1.40
2018-06-13T00:18:43.381Z,1.60
2018-06-13T00:21:18.090Z,1.40
2018-06-13T00:23:51.398Z,1.20
2018-06-13T00:26:25.217Z,1.97
2018-06-13T00:28:56.708Z,2.10
2018-06-13T00:31:29.657Z,1.67
2018-06-13T00:34:02.825Z,1.50
2018-06-13T00:39:18.940Z,1.40
2018-06-13T00:41:53.646Z,1.60
2018-06-13T00:44:29.695Z,1.33
2018-06-13T00:47:03.916Z,1.10
2018-06-13T00:49:39.075Z,1.20
2018-06-13T00:52:13.450Z,0.83
2018-06-13T00:54:46.983Z,1.40
2018-06-13T00:57:22.139Z,1.07
2018-06-13T00:59:55.137Z,1.40
2018-06-13T01:02:28.916Z,1.00
2018-06-13T01:05:01.438Z,1.30
2018-06-13T01:07:34.211Z,1.60
2018-06-13T01:10:07.447Z,1.80
2018-06-13T01:12:42.884Z,3.83
2018-06-13T01:15:15.858Z,4.20
2018-06-13T01:17:49.373Z,2.13
2018-06-13T01:20:22.998Z,2.07
2018-06-13T01:22:56.615Z,3.30
2018-06-13T01:25:29.164Z,4.33
2018-06-13T01:28:03.871Z,2.90
2018-06-13T01:30:37.332Z,2.93
2018-06-13T01:33:12.207Z,1.63
2018-06-13T01:35:46.401Z,1.90
2018-06-13T01:41:02.239Z,2.33
2018-06-13T01:43:38.943Z,1.80
2018-06-13T01:46:12.185Z,2.20
2018-06-13T01:48:45.317Z,1.90
2018-06-13T01:51:18.873Z,1.83
2018-06-13T01:53:54.535Z,2.20
2018-06-13T01:56:32.313Z,1.40
2018-06-13T01:59:09.535Z,2.00
2018-06-13T02:01:44.155Z,1.70
2018-06-13T02:04:21.232Z,1.60
2018-06-13T02:09:38.502Z,2.10
2018-06-13T02:23:03.397Z,2.00
2018-06-13T02:25:39.159Z,2.13
2018-06-13T02:28:14.142Z,1.83
2018-06-13T02:30:47.813Z,2.23
2018-06-13T02:33:22.337Z,2.10
2018-06-13T02:36:04.141Z,1.37
2018-06-13T02:41:17.173Z,2.10
2018-06-13T02:43:52.372Z,2.20
2018-06-13T02:46:26.378Z,1.60
2018-06-13T02:57:00.925Z,1.70
2018-06-13T02:59:36.010Z,1.67
2018-06-13T03:02:09.435Z,1.53
2018-06-13T03:04:42.357Z,1.80
2018-06-13T03:07:20.441Z,1.90
2018-06-13T03:09:53.838Z,1.80
2018-06-13T03:12:26.639Z,2.00
2018-06-13T03:15:00.470Z,2.13
2018-06-13T03:17:37.264Z,1.50
2018-06-13T03:22:54.370Z,2.07
2018-06-13T03:25:29.104Z,1.70
2018-06-13T03:28:02.154Z,1.57
2018-06-13T03:30:37.437Z,1.80
2018-06-13T03:33:13.647Z,1.53
2018-06-13T03:35:46.205Z,1.80
2018-06-13T03:38:19.559Z,2.17
2018-06-13T03:40:52.245Z,1.90
2018-06-13T03:43:24.662Z,1.70
2018-06-13T03:45:57.179Z,1.60
2018-06-13T03:48:30.156Z,1.83
2018-06-13T03:51:02.815Z,1.87
2018-06-13T03:53:35.605Z,1.70
2018-06-13T03:56:10.266Z,1.80
2018-06-13T03:58:43.180Z,2.23
2018-06-13T04:01:16.163Z,1.90
2018-06-13T04:03:48.853Z,1.50
2018-06-13T04:06:22.106Z,1.90
2018-06-13T04:08:54.593Z,1.93
2018-06-13T04:11:27.451Z,1.80
2018-06-13T04:14:01.094Z,1.80
2018-06-13T04:16:32.470Z,1.83
2018-06-13T04:19:05.576Z,1.77
2018-06-13T04:21:38.719Z,1.60
2018-06-13T04:24:11.105Z,1.90
2018-06-13T04:26:43.772Z,1.70
2018-06-13T04:29:16.453Z,1.60
2018-06-13T04:31:48.963Z,1.70
2018-06-13T04:34:22.215Z,2.30
2018-06-13T04:36:55.276Z,2.10
2018-06-13T04:39:28.000Z,2.00
2018-06-13T04:42:00.612Z,1.83
2018-06-13T04:44:33.416Z,2.07
2018-06-13T04:47:06.005Z,2.20
2018-06-13T04:49:40.090Z,1.80
2018-06-13T04:52:12.280Z,2.30
2018-06-13T04:54:44.711Z,2.40
2018-06-13T04:57:17.662Z,2.33
2018-06-13T04:59:50.189Z,2.40
2018-06-13T05:02:23.435Z,2.30
2018-06-13T05:04:56.019Z,2.50
2018-06-13T05:07:28.869Z,2.43
2018-06-13T05:10:01.684Z,2.47
2018-06-13T05:12:34.083Z,2.30
2018-06-13T05:15:06.662Z,2.77
2018-06-13T05:17:38.835Z,2.33
2018-06-13T05:20:11.438Z,2.10
2018-06-13T05:22:44.067Z,2.70
2018-06-13T05:25:16.709Z,2.73
2018-06-13T05:27:49.298Z,2.93
2018-06-13T05:30:22.136Z,2.97
2018-06-13T05:32:53.523Z,3.07
2018-06-13T05:35:26.440Z,2.80
2018-06-13T05:37:59.625Z,4.03
2018-06-13T05:40:32.294Z,3.47
2018-06-13T05:43:05.155Z,4.37
2018-06-13T05:45:37.885Z,8.83
2018-06-13T05:48:10.478Z,5.87
2018-06-13T05:50:44.851Z,3.60
2018-06-13T05:53:17.468Z,3.07
2018-06-13T05:55:49.964Z,3.10
2018-06-13T05:58:22.872Z,3.13
2018-06-13T06:00:55.606Z,6.37
2018-06-13T06:03:27.700Z,5.83
2018-06-13T06:05:59.963Z,5.10
2018-06-13T06:08:31.551Z,3.80
2018-06-13T06:11:04.616Z,3.53
2018-06-13T06:13:37.359Z,2.73
2018-06-13T06:16:09.864Z,2.90
2018-06-13T06:18:42.762Z,2.90
2018-06-13T06:21:15.249Z,3.33
2018-06-13T06:23:47.837Z,3.40
2018-06-13T06:26:20.044Z,3.63
2018-06-13T06:28:52.412Z,3.20
2018-06-13T06:31:24.791Z,2.83
2018-06-13T06:33:57.192Z,2.63
2018-06-13T06:36:29.364Z,2.30
2018-06-13T06:39:01.930Z,2.37
2018-06-13T06:41:34.272Z,2.37
2018-06-13T06:44:06.620Z,2.17
2018-06-13T06:46:38.921Z,1.77
2018-06-13T06:49:11.311Z,2.30
2018-06-13T06:51:45.045Z,2.77
2018-06-13T06:54:17.451Z,2.13
2018-06-13T06:56:49.832Z,2.33
2018-06-13T06:59:21.992Z,2.20
2018-06-13T07:01:54.583Z,2.33
2018-06-13T07:04:26.728Z,2.40
2018-06-13T07:06:59.133Z,3.27
2018-06-13T07:09:31.686Z,2.77
2018-06-13T07:12:04.128Z,2.90
2018-06-13T07:14:36.625Z,2.47
2018-06-13T07:17:09.241Z,2.87
2018-06-13T07:19:41.605Z,3.40
2018-06-13T07:22:14.285Z,2.47
2018-06-13T07:24:46.750Z,3.00
2018-06-13T07:27:19.211Z,3.00
2018-06-13T07:29:51.796Z,2.90
2018-06-13T07:32:24.580Z,2.10
2018-06-13T07:34:57.146Z,2.50
2018-06-13T07:37:29.230Z,3.17
2018-06-13T07:40:01.814Z,2.40
2018-06-13T07:42:34.372Z,2.70
2018-06-13T07:45:06.744Z,2.30
2018-06-13T07:47:39.425Z,2.83
2018-06-13T07:50:11.939Z,2.67
2018-06-13T07:52:44.631Z,2.47
2018-06-13T07:55:17.190Z,2.47
2018-06-13T07:57:49.732Z,2.30
2018-06-13T08:00:21.924Z,2.40
2018-06-13T08:02:54.082Z,2.37
2018-06-13T08:05:26.934Z,2.07
2018-06-13T08:07:59.284Z,2.47
2018-06-13T08:10:31.655Z,2.30
2018-06-13T08:13:04.144Z,2.27
2018-06-13T08:15:36.559Z,2.20
2018-06-13T08:18:09.092Z,2.00
2018-06-13T08:20:41.634Z,1.80
2018-06-13T08:23:14.225Z,2.00
2018-06-13T08:25:46.660Z,1.83
2018-06-13T08:28:19.433Z,1.50
2018-06-13T08:30:51.819Z,1.90
2018-06-13T08:33:24.021Z,1.70
2018-06-13T08:35:56.508Z,1.83
2018-06-13T08:38:28.843Z,1.30
2018-06-13T08:41:01.474Z,1.40
2018-06-13T08:43:34.345Z,1.40
2018-06-13T08:46:06.689Z,1.73
2018-06-13T08:48:39.285Z,1.63
2018-06-13T08:51:11.898Z,1.80
2018-06-13T08:53:44.651Z,1.57
2018-06-13T08:56:17.085Z,1.60
2018-06-13T08:58:50.098Z,1.60
2018-06-13T09:01:22.666Z,1.67
2018-06-13T09:03:55.350Z,1.40
2018-06-13T09:06:27.803Z,1.37
2018-06-13T09:09:00.332Z,1.17
2018-06-13T09:11:32.448Z,1.53
2018-06-13T09:14:05.131Z,1.70
2018-06-13T09:16:37.592Z,2.00
2018-06-13T09:19:10.007Z,1.40
2018-06-13T09:21:42.137Z,1.30
2018-06-13T09:24:14.515Z,1.60
2018-06-13T09:26:46.693Z,1.50
2018-06-13T09:29:19.048Z,1.60
2018-06-13T09:31:51.401Z,1.83
2018-06-13T09:34:23.648Z,1.90
2018-06-13T09:36:56.164Z,1.40
2018-06-13T09:39:28.553Z,1.20
2018-06-13T09:42:03.369Z,1.57
2018-06-13T09:44:35.951Z,1.40
2018-06-13T09:47:15.129Z,1.30
2018-06-13T09:49:41.141Z,1.30
2018-06-13T09:52:13.982Z,1.50
2018-06-13T09:54:46.419Z,1.37
2018-06-13T09:57:19.112Z,2.80
2018-06-13T09:59:56.716Z,1.40
2018-06-13T10:02:33.428Z,1.40
2018-06-13T10:05:07.034Z,1.50
2018-06-13T10:07:39.349Z,1.50
2018-06-13T10:10:11.763Z,1.50
2018-06-13T10:12:44.105Z,1.60
2018-06-13T10:15:16.531Z,1.63
2018-06-13T10:17:48.667Z,1.60
2018-06-13T10:20:21.055Z,1.40
2018-06-13T10:22:53.376Z,1.70
2018-06-13T10:25:25.968Z,1.80
2018-06-13T10:27:58.764Z,1.70
2018-06-13T10:30:31.323Z,1.10
2018-06-13T10:33:03.730Z,1.20
2018-06-13T10:35:36.060Z,1.50
2018-06-13T10:38:08.416Z,1.40
2018-06-13T10:40:40.659Z,1.80
2018-06-13T10:43:12.814Z,1.80
2018-06-13T10:45:45.384Z,1.60
2018-06-13T10:48:17.905Z,1.60
2018-06-13T10:50:50.309Z,2.03
2018-06-13T10:53:22.454Z,1.50
2018-06-13T10:55:55.684Z,1.50
2018-06-13T10:58:27.985Z,1.80
2018-06-13T11:01:00.612Z,1.60
2018-06-13T11:03:32.942Z,1.17
2018-06-13T11:06:05.285Z,1.20
2018-06-13T11:08:37.632Z,1.20
2018-06-13T11:11:10.234Z,1.20
2018-06-13T11:13:42.548Z,1.53
2018-06-13T11:16:14.919Z,1.10
2018-06-13T11:18:47.513Z,1.50
2018-06-13T11:21:20.097Z,1.23
2018-06-13T11:23:52.464Z,1.27
2018-06-13T11:26:24.840Z,1.67
2018-06-13T11:28:57.421Z,1.23
2018-06-13T11:31:29.781Z,1.33
2018-06-13T11:34:02.179Z,1.20
2018-06-13T11:36:34.711Z,1.60
2018-06-13T11:39:08.693Z,1.40
2018-06-13T11:41:41.554Z,1.40
2018-06-13T11:44:13.982Z,1.27
2018-06-13T11:46:46.383Z,1.20
2018-06-13T11:49:18.728Z,1.30
2018-06-13T11:51:51.311Z,1.10
2018-06-13T11:54:23.488Z,1.53
2018-06-13T11:56:56.155Z,1.23
2018-06-13T11:59:28.447Z,1.47
2018-06-13T12:02:00.889Z,1.20
2018-06-13T12:04:33.372Z,1.50
2018-06-13T12:07:05.780Z,1.33
2018-06-13T12:09:37.951Z,1.33
2018-06-13T12:12:10.541Z,1.40
2018-06-13T12:14:42.863Z,1.20
2018-06-13T12:17:15.044Z,1.20
2018-06-13T12:19:47.560Z,0.97
2018-06-13T12:22:20.037Z,1.27
2018-06-13T12:24:52.126Z,1.40
2018-06-13T12:27:24.553Z,1.30
2018-06-13T12:29:56.897Z,1.47
2018-06-13T12:32:29.454Z,1.30
2018-06-13T12:35:02.024Z,1.20
2018-06-13T12:37:34.338Z,1.10
2018-06-13T12:40:05.580Z,1.30
2018-06-13T12:42:38.034Z,1.00
2018-06-13T12:45:10.592Z,1.50
2018-06-13T12:47:42.969Z,1.00
2018-06-13T12:50:15.350Z,1.10
2018-06-13T12:52:47.729Z,1.27
2018-06-13T12:55:20.068Z,0.83
2018-06-13T12:57:53.357Z,1.30
2018-06-13T13:00:26.085Z,0.93
2018-06-13T13:02:58.475Z,1.10
2018-06-13T13:05:30.780Z,1.20
2018-06-13T13:08:03.250Z,0.93
2018-06-13T13:10:35.614Z,1.13
2018-06-13T13:13:08.109Z,1.40
2018-06-13T13:15:40.381Z,1.07
2018-06-13T13:18:12.749Z,1.10
2018-06-13T13:20:45.067Z,1.00
2018-06-13T13:23:17.244Z,1.10
2018-06-13T13:25:49.568Z,1.10
2018-06-13T13:28:21.765Z,1.27
2018-06-13T13:30:54.334Z,1.60
2018-06-13T13:33:26.756Z,1.50
2018-06-13T13:35:58.892Z,1.27
2018-06-13T13:38:31.231Z,1.40
2018-06-13T13:41:03.401Z,1.10
2018-06-13T13:43:35.630Z,1.20
2018-06-13T13:46:07.925Z,1.10
2018-06-13T13:48:40.292Z,1.30
2018-06-13T13:51:12.547Z,1.30
2018-06-13T13:53:44.668Z,1.63
2018-06-13T13:56:16.925Z,1.20
2018-06-13T13:58:50.331Z,1.10
2018-06-13T14:01:22.749Z,1.20
2018-06-13T14:03:54.977Z,1.17
2018-06-13T14:06:27.628Z,1.33
2018-06-13T14:09:00.020Z,1.10
2018-06-13T14:11:32.140Z,1.40
2018-06-13T14:14:04.718Z,1.20
2018-06-13T14:16:37.394Z,1.27
2018-06-13T14:19:10.083Z,1.50
2018-06-13T14:21:42.163Z,1.33
2018-06-13T14:24:14.496Z,1.10
2018-06-13T14:26:46.850Z,1.50
2018-06-13T14:29:19.528Z,1.60
2018-06-13T14:31:51.728Z,1.40
2018-06-13T14:34:24.552Z,1.43
2018-06-13T14:36:57.328Z,1.80
2018-06-13T14:39:30.072Z,1.30
2018-06-13T14:42:02.441Z,1.50
2018-06-13T14:44:34.697Z,1.50
2018-06-13T14:47:06.983Z,1.70
2018-06-13T14:49:40.169Z,1.57
2018-06-13T14:52:12.444Z,1.63
2018-06-13T14:54:44.735Z,1.60
2018-06-13T14:57:17.394Z,1.93
2018-06-13T14:59:50.786Z,1.30
2018-06-13T15:02:23.157Z,1.10
2018-06-13T15:04:55.374Z,1.60
2018-06-13T15:07:27.687Z,1.30
2018-06-13T15:09:59.948Z,1.40
2018-06-13T15:12:33.768Z,1.30
2018-06-13T15:15:05.955Z,1.30
2018-06-13T15:17:38.424Z,1.10
2018-06-13T15:20:10.820Z,1.00
2018-06-13T15:22:43.185Z,1.03
2018-06-13T15:25:15.761Z,1.43
2018-06-13T15:27:48.307Z,1.20
2018-06-13T15:30:20.713Z,1.43
2018-06-13T15:32:53.186Z,1.10
2018-06-13T15:35:25.475Z,1.10
2018-06-13T15:37:56.469Z,1.20
2018-06-13T15:40:28.674Z,1.40
2018-06-13T15:43:00.889Z,1.33
2018-06-13T15:45:33.422Z,1.70
2018-06-13T15:48:06.531Z,1.27
2018-06-13T15:50:38.908Z,1.40
2018-06-13T15:53:11.374Z,1.50
2018-06-13T15:55:43.972Z,1.40
2018-06-13T15:58:16.287Z,1.10
2018-06-13T16:00:49.287Z,2.00
2018-06-13T16:03:22.820Z,1.40
2018-06-13T16:05:55.054Z,1.57
2018-06-13T16:08:27.570Z,1.90
2018-06-13T16:11:01.047Z,1.60
2018-06-13T16:13:33.384Z,1.43
2018-06-13T16:16:05.827Z,1.60
2018-06-13T16:18:38.048Z,1.20
2018-06-13T16:21:10.666Z,1.50
2018-06-13T16:23:42.915Z,1.80
2018-06-13T16:26:15.564Z,1.40
2018-06-13T16:28:47.966Z,1.60
2018-06-13T16:31:20.095Z,1.67
2018-06-13T16:33:52.666Z,1.70
2018-06-13T16:36:25.229Z,1.70
2018-06-13T16:38:57.584Z,2.50
2018-06-13T16:41:30.260Z,1.70
2018-06-13T16:44:02.516Z,1.77
2018-06-13T16:46:35.068Z,1.87
2018-06-13T16:49:07.558Z,1.60
2018-06-13T16:51:51.505Z,1.57
2018-06-13T16:54:33.041Z,1.60
2018-06-13T16:57:05.466Z,1.80
2018-06-13T16:59:38.002Z,1.70
2018-06-13T17:02:10.482Z,1.70
2018-06-13T17:04:42.789Z,1.50
2018-06-13T17:07:15.398Z,1.90
2018-06-13T17:09:48.111Z,1.67
2018-06-13T17:12:20.601Z,2.27
2018-06-13T17:14:52.912Z,1.73
2018-06-13T17:17:25.251Z,2.00
2018-06-13T17:19:57.668Z,1.90
2018-06-13T17:22:29.964Z,2.37
2018-06-13T17:25:02.362Z,1.90
2018-06-13T17:27:35.042Z,1.80
2018-06-13T17:30:07.352Z,2.50
2018-06-13T17:32:39.897Z,1.97
2018-06-13T17:35:12.486Z,4.10
2018-06-13T17:37:44.683Z,2.10
2018-06-13T17:40:17.433Z,2.03
2018-06-13T17:42:49.827Z,1.60
2018-06-13T17:45:22.165Z,2.00
2018-06-13T17:47:54.337Z,2.53
2018-06-13T17:50:26.628Z,2.60
2018-06-13T17:52:59.016Z,2.40
2018-06-13T17:55:31.610Z,1.33
2018-06-13T17:58:04.077Z,1.87
2018-06-13T18:00:36.507Z,1.33
2018-06-13T18:03:09.207Z,1.50
2018-06-13T18:05:41.575Z,1.50
2018-06-13T18:08:13.989Z,1.60
2018-06-13T18:10:46.576Z,1.43
2018-06-13T18:13:18.864Z,1.37
2018-06-13T18:15:51.245Z,1.20
2018-06-13T18:18:23.934Z,1.40
2018-06-13T18:20:56.508Z,2.00
2018-06-13T18:23:28.943Z,2.17
2018-06-13T18:26:01.696Z,2.50
2018-06-13T18:28:34.323Z,2.47
2018-06-13T18:31:06.796Z,2.67
2018-06-13T18:33:39.434Z,2.60
2018-06-13T18:36:11.598Z,2.57
2018-06-13T18:38:44.121Z,2.50
2018-06-13T18:41:16.297Z,2.33
2018-06-13T18:43:48.861Z,2.53
2018-06-13T18:46:21.095Z,2.27
2018-06-13T18:48:53.716Z,2.10
2018-06-13T18:51:26.288Z,2.10
2018-06-13T18:53:59.149Z,1.97
2018-06-13T18:56:31.437Z,1.73
2018-06-13T18:59:03.848Z,2.10
2018-06-13T19:01:36.398Z,2.07
2018-06-13T19:04:09.860Z,1.80
2018-06-13T19:06:42.619Z,1.70
2018-06-13T19:09:14.950Z,1.87
2018-06-13T19:11:47.518Z,1.77
2018-06-13T19:14:19.945Z,1.77
2018-06-13T19:16:52.230Z,1.83
2018-06-13T19:19:24.873Z,2.03
2018-06-13T19:21:58.058Z,1.83
2018-06-13T19:24:29.470Z,2.07
2018-06-13T19:27:01.836Z,1.80
2018-06-13T19:29:34.040Z,1.60
2018-06-13T19:32:05.213Z,1.70
2018-06-13T19:34:37.627Z,1.50
2018-06-13T19:37:10.231Z,1.70
2018-06-13T19:39:42.352Z,1.70
2018-06-13T19:42:15.245Z,2.20
2018-06-13T19:44:47.810Z,1.80
2018-06-13T19:47:24.477Z,1.83
2018-06-13T19:49:56.796Z,1.90
2018-06-13T19:52:33.809Z,1.60
2018-06-13T19:55:10.979Z,2.40
2018-06-13T19:57:43.395Z,2.10
2018-06-13T20:00:15.628Z,1.93
2018-06-13T20:02:52.492Z,1.97
2018-06-13T20:05:29.384Z,1.77
2018-06-13T20:08:01.758Z,2.03
2018-06-13T20:10:34.076Z,2.30
2018-06-13T20:13:10.846Z,1.60
2018-06-13T20:15:47.476Z,1.70
2018-06-13T20:18:24.256Z,1.97
2018-06-13T20:20:56.894Z,1.90
2018-06-13T20:23:29.399Z,1.60
2018-06-13T20:26:05.951Z,1.60
2018-06-13T20:28:42.706Z,1.80
2018-06-13T20:31:20.070Z,1.50
2018-06-13T20:33:52.276Z,1.50
2018-06-13T20:36:24.683Z,1.20
2018-06-13T20:38:58.212Z,1.50
2018-06-13T20:41:30.617Z,1.90
2018-06-13T20:44:03.346Z,1.73
2018-06-13T20:46:35.810Z,1.60
2018-06-13T20:49:08.128Z,1.70
2018-06-13T20:51:40.758Z,1.80
2018-06-13T20:54:12.900Z,1.73
2018-06-13T20:56:46.156Z,1.60
2018-06-13T20:59:18.541Z,1.63
2018-06-13T21:01:50.770Z,1.60
2018-06-13T21:04:23.038Z,1.70
2018-06-13T21:06:55.481Z,1.83
2018-06-13T21:16:16.944Z,1.90
2018-06-13T21:18:49.505Z,2.13
2018-06-13T21:21:22.021Z,2.10
2018-06-13T21:23:54.127Z,1.77
2018-06-13T21:26:26.769Z,2.40
2018-06-13T21:28:59.277Z,2.73
2018-06-13T21:31:31.642Z,2.10
2018-06-13T21:34:03.933Z,3.30
2018-06-13T21:36:35.548Z,2.40
2018-06-13T21:39:09.871Z,2.50
2018-06-13T21:41:42.187Z,2.67
2018-06-13T21:44:14.915Z,2.00
2018-06-13T21:46:47.316Z,2.60
2018-06-13T21:49:19.455Z,2.70
2018-06-13T21:51:51.966Z,2.60
2018-06-13T21:54:24.525Z,3.20
2018-06-13T21:56:57.133Z,3.40
2018-06-13T21:59:30.037Z,2.60
2018-06-13T22:02:02.501Z,2.33
2018-06-13T22:04:35.192Z,2.80
2018-06-13T22:07:07.414Z,2.57
2018-06-13T22:09:40.038Z,2.10
2018-06-13T22:12:12.319Z,1.90
2018-06-13T22:14:44.518Z,2.27
2018-06-13T22:17:16.900Z,1.70
2018-06-13T22:19:49.213Z,1.83
2018-06-13T22:22:21.454Z,2.23
2018-06-13T22:24:53.999Z,1.77
2018-06-13T22:27:26.389Z,1.67
2018-06-13T22:29:58.503Z,1.10
2018-06-13T22:32:30.909Z,1.33
2018-06-13T22:35:03.226Z,0.90
2018-06-13T22:37:35.703Z,0.90
2018-06-13T22:40:08.133Z,1.90
2018-06-13T22:42:40.311Z,1.57
2018-06-13T22:45:12.847Z,1.23
2018-06-13T22:47:45.073Z,1.40
2018-06-13T22:50:17.387Z,1.20
2018-06-13T22:52:49.964Z,1.50
2018-06-13T22:55:22.149Z,1.00
2018-06-13T22:57:54.480Z,1.23
2018-06-13T23:00:45.562Z,1.30
2018-06-13T23:03:17.769Z,1.10
2018-06-13T23:05:50.061Z,1.50
2018-06-13T23:08:22.454Z,1.10
2018-06-13T23:10:54.832Z,1.73
2018-06-13T23:13:27.331Z,1.63
2018-06-13T23:15:59.750Z,1.53
2018-06-13T23:18:32.555Z,1.90
2018-06-13T23:21:04.879Z,1.20
2018-06-13T23:23:37.283Z,1.10
2018-06-13T23:26:09.812Z,1.27
2018-06-13T23:28:42.376Z,1.20
2018-06-13T23:31:14.770Z,1.30
2018-06-13T23:33:47.344Z,1.20
2018-06-13T23:36:20.084Z,0.87
2018-06-13T23:38:52.527Z,0.87
2018-06-13T23:41:24.897Z,1.03
2018-06-13T23:43:57.885Z,1.87
2018-06-13T23:46:30.235Z,0.70
2018-06-13T23:49:02.748Z,1.10
2018-06-13T23:51:34.669Z,0.80
2018-06-13T23:54:07.055Z,0.90
2018-06-13T23:56:39.399Z,0.60
2018-06-13T23:59:11.903Z,1.00
